CFP3 weather

CLOSED Calgary (Foothills Hospital) Heliport
Calgary, Alberta, Canada

Public forecast

Using degrees Celsius for public forecast. Weather courtesy of forecast.io.

Closest aviation weather report (METAR) to Calgary (Foothills Hospital) Heliport

Closest report is Calgary International Airport, 5.2 nm (9.6 km) NE. Retrieved 2020/05/28 19:00 UTC (27 minutes ago):

CYYC 281900Z 16008G23KT 140V200 40SM FEW070 FEW280 17/01 A3022 RMK CU1CS6 CU TR HALO SLP248 DENSITY ALT 4400FT

Closest aviation forecast (TAF) to Calgary (Foothills Hospital) Heliport

Closest forecast is Calgary International Airport, 5.2 nm (9.6 km) NE. Retrieved 2020/05/28 18:42 UTC (45 minutes ago):

TAF CYYC 281739Z 2818/2918 16012G22KT P6SM FEW060 SCT220 FM282300 16010G20KT P6SM BKN120 BKN200 FM290300 VRB03KT P6SM BKN090 OVC140 FM291000 32005KT P6SM FEW090 SCT200 FM291600 35008KT P6SM SKC RMK NXT FCST BY 282100Z